createdAt,value
2023-05-21T00:00:30.381Z,0.00
2023-05-21T00:05:30.321Z,0.00
2023-05-21T00:10:30.246Z,0.00
2023-05-21T00:15:30.169Z,0.00
2023-05-21T00:20:30.111Z,0.00
2023-05-21T00:25:30.046Z,0.00
2023-05-21T00:30:29.965Z,0.00
2023-05-21T00:35:29.904Z,0.00
2023-05-21T00:40:29.835Z,0.00
2023-05-21T00:45:30.009Z,0.00
2023-05-21T00:50:29.689Z,0.00
2023-05-21T00:55:29.632Z,0.00
2023-05-21T01:00:29.566Z,0.00
2023-05-21T01:05:29.535Z,0.00
2023-05-21T01:10:29.429Z,0.00
2023-05-21T01:15:29.365Z,0.00
2023-05-21T01:20:29.299Z,0.00
2023-05-21T01:25:29.244Z,0.00
2023-05-21T01:30:29.164Z,0.00
2023-05-21T01:35:29.099Z,0.00
2023-05-21T01:40:29.031Z,0.00
2023-05-21T01:45:28.990Z,0.00
2023-05-21T01:50:28.895Z,0.00
2023-05-21T01:55:28.846Z,0.00
2023-05-21T02:00:28.767Z,0.00
2023-05-21T02:05:28.721Z,0.00
2023-05-21T02:10:28.635Z,0.00
2023-05-21T02:15:28.565Z,0.00
2023-05-21T02:20:28.496Z,0.00
2023-05-21T02:25:28.433Z,0.00
2023-05-21T02:30:28.374Z,0.00
2023-05-21T02:35:28.297Z,8.00
2023-05-21T02:40:28.229Z,8.00
2023-05-21T02:45:28.179Z,20.00
2023-05-21T02:50:28.089Z,40.00
2023-05-21T02:55:28.024Z,68.00
2023-05-21T03:00:27.977Z,108.00
2023-05-21T03:05:27.897Z,168.00
2023-05-21T03:10:27.819Z,252.00
2023-05-21T03:15:27.757Z,364.00
2023-05-21T03:20:27.687Z,516.00
2023-05-21T03:25:27.625Z,704.00
2023-05-21T03:30:27.546Z,912.00
2023-05-21T03:35:27.498Z,1108.00
2023-05-21T03:40:27.413Z,1336.00
2023-05-21T03:45:27.349Z,1612.00
2023-05-21T03:50:27.303Z,1892.00
2023-05-21T03:55:27.230Z,2196.00
2023-05-21T04:00:27.138Z,2580.00
2023-05-21T04:05:27.081Z,3052.00
2023-05-21T04:10:27.029Z,3640.00
2023-05-21T04:15:26.959Z,4432.00
2023-05-21T04:20:26.885Z,5436.00
2023-05-21T04:25:26.818Z,6896.00
2023-05-21T04:30:26.758Z,9232.00
2023-05-21T04:35:26.690Z,18112.00
2023-05-21T04:40:26.627Z,26944.00
2023-05-21T04:45:26.586Z,30976.00
2023-05-21T04:50:26.477Z,37280.00
2023-05-21T04:55:26.443Z,40736.00
2023-05-21T05:00:26.370Z,42560.00
2023-05-21T05:05:26.282Z,44288.00
2023-05-21T05:10:26.210Z,47808.00
2023-05-21T05:15:26.413Z,49728.00
2023-05-21T05:20:26.091Z,51104.00
2023-05-21T05:25:26.038Z,54912.00
2023-05-21T05:30:25.960Z,48576.00
2023-05-21T05:35:25.900Z,40864.00
2023-05-21T05:40:25.846Z,47328.00
2023-05-21T05:45:25.781Z,35392.00
2023-05-21T05:50:25.711Z,49504.00
2023-05-21T05:55:25.646Z,40672.00
2023-05-21T06:00:25.616Z,44960.00
2023-05-21T06:05:25.570Z,52672.00
2023-05-21T06:10:25.449Z,66336.00
2023-05-21T06:15:25.385Z,55936.00
2023-05-21T06:20:25.336Z,54208.00
2023-05-21T06:25:25.270Z,52160.00
2023-05-21T06:30:25.219Z,39968.00
2023-05-21T06:35:25.145Z,27392.00
2023-05-21T06:40:25.064Z,22016.00
2023-05-21T06:45:25.065Z,20320.00
2023-05-21T06:50:24.942Z,19296.00
2023-05-21T06:55:24.896Z,19616.00
2023-05-21T07:00:25.193Z,24160.00
2023-05-21T07:05:24.751Z,20928.00
2023-05-21T07:10:26.120Z,15520.00
2023-05-21T07:15:24.637Z,13944.00
2023-05-21T07:20:27.273Z,13792.00
2023-05-21T07:25:24.482Z,16352.00
2023-05-21T07:30:24.447Z,17280.00
2023-05-21T07:35:24.356Z,20928.00
2023-05-21T07:40:24.322Z,29120.00
2023-05-21T07:45:24.257Z,24320.00
2023-05-21T07:50:24.212Z,26080.00
2023-05-21T07:55:24.121Z,27328.00
2023-05-21T08:00:24.072Z,29984.00
2023-05-21T08:05:23.986Z,30688.00
2023-05-21T08:10:23.946Z,26752.00
2023-05-21T08:15:23.837Z,28800.00
2023-05-21T08:20:23.766Z,28160.00
2023-05-21T08:25:23.724Z,32000.00
2023-05-21T08:30:23.636Z,35232.00
2023-05-21T08:35:23.584Z,33408.00
2023-05-21T08:40:23.539Z,47040.00
2023-05-21T08:45:23.473Z,44672.00
2023-05-21T08:50:23.387Z,31328.00
2023-05-21T08:55:23.361Z,29600.00
2023-05-21T09:00:23.271Z,24416.00
2023-05-21T09:05:23.198Z,18368.00
2023-05-21T09:10:23.136Z,17280.00
2023-05-21T09:15:23.070Z,17664.00
2023-05-21T09:20:23.025Z,17664.00
2023-05-21T09:25:22.941Z,17888.00
2023-05-21T09:30:26.774Z,18112.00
2023-05-21T09:35:23.811Z,18176.00
2023-05-21T09:40:22.730Z,18048.00
2023-05-21T09:45:22.686Z,17664.00
2023-05-21T09:50:22.616Z,17568.00
2023-05-21T09:55:22.556Z,17408.00
2023-05-21T10:00:22.494Z,17216.00
2023-05-21T10:05:22.427Z,17248.00
2023-05-21T10:10:22.353Z,17376.00
2023-05-21T10:15:22.347Z,17280.00
2023-05-21T10:20:22.229Z,15712.00
2023-05-21T10:25:22.162Z,15392.00
2023-05-21T10:30:22.097Z,15104.00
2023-05-21T10:35:22.040Z,14496.00
2023-05-21T10:40:21.988Z,11832.00
2023-05-21T10:45:21.905Z,12312.00
2023-05-21T10:50:21.881Z,13852.00
2023-05-21T10:55:21.781Z,16256.00
2023-05-21T11:00:21.800Z,16576.00
2023-05-21T11:05:21.664Z,16000.00
2023-05-21T11:10:21.579Z,13864.00
2023-05-21T11:15:21.539Z,13200.00
2023-05-21T11:20:21.459Z,12708.00
2023-05-21T11:25:21.397Z,12592.00
2023-05-21T11:30:21.318Z,12624.00
2023-05-21T11:35:21.287Z,12748.00
2023-05-21T11:40:21.183Z,13564.00
2023-05-21T11:45:21.143Z,13688.00
2023-05-21T11:50:21.054Z,12516.00
2023-05-21T11:55:21.046Z,12132.00
2023-05-21T12:00:20.916Z,12572.00
2023-05-21T12:05:20.867Z,12196.00
2023-05-21T12:10:20.883Z,12008.00
2023-05-21T12:15:20.802Z,10696.00
2023-05-21T12:20:20.712Z,11240.00
2023-05-21T12:25:20.606Z,11408.00
2023-05-21T12:30:20.518Z,10916.00
2023-05-21T12:35:20.503Z,10976.00
2023-05-21T12:40:20.404Z,12008.00
2023-05-21T12:45:20.340Z,11648.00
2023-05-21T12:50:20.281Z,11204.00
2023-05-21T12:55:20.208Z,9708.00
2023-05-21T13:00:20.140Z,10292.00
2023-05-21T13:05:20.181Z,10564.00
2023-05-21T13:10:20.005Z,9512.00
2023-05-21T13:15:19.944Z,9156.00
2023-05-21T13:20:19.875Z,10792.00
2023-05-21T13:25:19.880Z,11648.00
2023-05-21T13:30:20.074Z,12568.00
2023-05-21T13:35:19.736Z,11272.00
2023-05-21T13:40:19.928Z,11492.00
2023-05-21T13:45:19.626Z,10556.00
2023-05-21T13:50:19.537Z,10992.00
2023-05-21T13:55:19.459Z,9804.00
2023-05-21T14:00:19.380Z,10320.00
2023-05-21T14:05:19.322Z,8964.00
2023-05-21T14:10:19.277Z,9120.00
2023-05-21T14:15:19.178Z,10576.00
2023-05-21T14:20:19.129Z,10460.00
2023-05-21T14:25:19.066Z,10648.00
2023-05-21T14:30:18.997Z,10644.00
2023-05-21T14:35:18.943Z,10232.00
2023-05-21T14:40:18.864Z,9160.00
2023-05-21T14:45:19.542Z,9448.00
2023-05-21T14:50:18.743Z,9240.00
2023-05-21T14:55:18.681Z,8644.00
2023-05-21T15:00:18.632Z,8668.00
2023-05-21T15:05:18.837Z,8796.00
2023-05-21T15:10:18.803Z,8848.00
2023-05-21T15:15:18.381Z,8660.00
2023-05-21T15:20:19.252Z,8432.00
2023-05-21T15:25:18.253Z,8216.00
2023-05-21T15:30:18.173Z,8128.00
2023-05-21T15:35:18.499Z,7880.00
2023-05-21T15:40:18.034Z,7396.00
2023-05-21T15:45:17.992Z,6888.00
2023-05-21T15:50:17.980Z,6604.00
2023-05-21T15:55:18.279Z,6392.00
2023-05-21T16:00:23.104Z,6244.00
2023-05-21T16:05:17.778Z,6056.00
2023-05-21T16:10:17.689Z,5988.00
2023-05-21T16:15:17.866Z,5924.00
2023-05-21T16:20:17.516Z,5892.00
2023-05-21T16:25:17.456Z,5632.00
2023-05-21T16:30:17.381Z,5392.00
2023-05-21T16:35:17.396Z,5256.00
2023-05-21T16:40:17.316Z,5148.00
2023-05-21T16:45:17.186Z,5032.00
2023-05-21T16:50:17.398Z,4896.00
2023-05-21T16:55:17.081Z,4720.00
2023-05-21T17:00:16.993Z,4496.00
2023-05-21T17:05:16.929Z,4196.00
2023-05-21T17:10:17.758Z,3956.00
2023-05-21T17:15:16.827Z,3764.00
2023-05-21T17:20:17.405Z,3480.00
2023-05-21T17:25:16.725Z,3316.00
2023-05-21T17:30:16.633Z,3128.00
2023-05-21T17:35:16.575Z,2984.00
2023-05-21T17:40:16.502Z,2832.00
2023-05-21T17:45:16.426Z,2660.00
2023-05-21T17:50:16.338Z,2424.00
2023-05-21T17:55:16.299Z,2144.00
2023-05-21T18:00:16.232Z,1864.00
2023-05-21T18:05:16.149Z,1612.00
2023-05-21T18:10:16.210Z,1372.00
2023-05-21T18:15:16.021Z,1152.00
2023-05-21T18:20:15.943Z,940.00
2023-05-21T18:25:16.017Z,736.00
2023-05-21T18:30:15.925Z,556.00
2023-05-21T18:35:16.782Z,416.00
2023-05-21T18:40:15.685Z,300.00
2023-05-21T18:45:15.623Z,216.00
2023-05-21T18:50:15.545Z,156.00
2023-05-21T18:55:15.471Z,108.00
2023-05-21T19:00:15.416Z,72.00
2023-05-21T19:05:15.385Z,44.00
2023-05-21T19:10:15.286Z,24.00
2023-05-21T19:15:15.211Z,16.00
2023-05-21T19:20:15.141Z,4.00
2023-05-21T19:25:15.064Z,4.00
2023-05-21T19:30:14.979Z,0.00
2023-05-21T19:35:14.930Z,0.00
2023-05-21T19:40:14.895Z,0.00
2023-05-21T19:45:14.799Z,0.00
2023-05-21T19:50:14.740Z,0.00
2023-05-21T19:55:14.670Z,0.00
2023-05-21T20:00:14.589Z,0.00
2023-05-21T20:05:14.570Z,0.00
2023-05-21T20:10:14.464Z,0.00
2023-05-21T20:15:14.396Z,0.00
2023-05-21T20:20:14.335Z,0.00
2023-05-21T20:25:14.306Z,0.00
2023-05-21T20:30:14.195Z,0.00
2023-05-21T20:35:14.120Z,0.00
2023-05-21T20:40:14.960Z,0.00
2023-05-21T20:45:13.988Z,0.00
2023-05-21T20:50:13.979Z,0.00
2023-05-21T20:55:13.917Z,0.00
2023-05-21T21:00:13.882Z,0.00
2023-05-21T21:05:13.828Z,0.00
2023-05-21T21:10:13.650Z,0.00
2023-05-21T21:15:13.583Z,0.00
2023-05-21T21:20:13.526Z,0.00
2023-05-21T21:25:13.452Z,0.00
2023-05-21T21:30:13.385Z,0.00
2023-05-21T21:35:13.310Z,0.00
2023-05-21T21:40:13.250Z,0.00
2023-05-21T21:45:13.172Z,0.00
2023-05-21T21:50:13.119Z,0.00
2023-05-21T21:55:13.050Z,0.00
2023-05-21T22:00:12.983Z,0.00
2023-05-21T22:05:12.914Z,0.00
2023-05-21T22:10:12.852Z,0.00
2023-05-21T22:15:12.785Z,0.00
2023-05-21T22:20:12.724Z,0.00
2023-05-21T22:25:12.656Z,0.00
2023-05-21T22:30:12.608Z,0.00
2023-05-21T22:35:12.523Z,0.00
2023-05-21T22:40:12.466Z,0.00
2023-05-21T22:45:12.389Z,0.00
2023-05-21T22:50:12.332Z,0.00
2023-05-21T22:55:12.290Z,0.00
2023-05-21T23:00:12.214Z,0.00
2023-05-21T23:05:12.176Z,0.00
2023-05-21T23:10:12.053Z,0.00
2023-05-21T23:15:11.995Z,0.00
2023-05-21T23:20:11.924Z,0.00
2023-05-21T23:25:11.855Z,0.00
2023-05-21T23:30:11.802Z,0.00
2023-05-21T23:35:11.722Z,0.00
2023-05-21T23:40:11.665Z,0.00
2023-05-21T23:45:11.605Z,0.00
2023-05-21T23:50:11.521Z,0.00
2023-05-21T23:55:11.475Z,0.00
